sensor_id;sensor_type;location;lat;lon;timestamp;temperature;humidity
53776;DHT22;44276;49.534;6.378;2022-11-20T00:01:14;7.50;99.90
53776;DHT22;44276;49.534;6.378;2022-11-20T00:03:43;7.50;99.90
53776;DHT22;44276;49.534;6.378;2022-11-20T00:06:12;7.50;99.90
53776;DHT22;44276;49.534;6.378;2022-11-20T00:08:41;7.50;99.90
53776;DHT22;44276;49.534;6.378;2022-11-20T00:11:10;7.50;99.90
53776;DHT22;44276;49.534;6.378;2022-11-20T00:13:42;7.60;99.90
53776;DHT22;44276;49.534;6.378;2022-11-20T00:16:10;7.50;99.90
53776;DHT22;44276;49.534;6.378;2022-11-20T00:18:41;7.60;99.90
53776;DHT22;44276;49.534;6.378;2022-11-20T00:21:10;7.50;99.90
53776;DHT22;44276;49.534;6.378;2022-11-20T00:23:40;7.60;99.90
53776;DHT22;44276;49.534;6.378;2022-11-20T00:26:09;7.60;99.90
53776;DHT22;44276;49.534;6.378;2022-11-20T00:28:38;7.60;99.90
53776;DHT22;44276;49.534;6.378;2022-11-20T00:31:08;7.60;99.90
53776;DHT22;44276;49.534;6.378;2022-11-20T00:33:37;7.60;99.90
53776;DHT22;44276;49.534;6.378;2022-11-20T00:36:07;7.70;99.90
53776;DHT22;44276;49.534;6.378;2022-11-20T00:38:38;7.70;99.90
53776;DHT22;44276;49.534;6.378;2022-11-20T00:41:06;7.70;99.90
53776;DHT22;44276;49.534;6.378;2022-11-20T00:43:36;7.60;99.90
53776;DHT22;44276;49.534;6.378;2022-11-20T00:46:05;7.70;99.90
53776;DHT22;44276;49.534;6.378;2022-11-20T00:48:35;7.80;99.90
53776;DHT22;44276;49.534;6.378;2022-11-20T00:51:03;7.70;99.90
53776;DHT22;44276;49.534;6.378;2022-11-20T00:53:33;7.80;99.90
53776;DHT22;44276;49.534;6.378;2022-11-20T00:56:01;7.80;99.90
53776;DHT22;44276;49.534;6.378;2022-11-20T00:58:32;7.70;99.90
53776;DHT22;44276;49.534;6.378;2022-11-20T01:01:01;7.80;99.90
53776;DHT22;44276;49.534;6.378;2022-11-20T01:03:31;7.80;99.90
53776;DHT22;44276;49.534;6.378;2022-11-20T01:06:00;7.80;99.90
53776;DHT22;44276;49.534;6.378;2022-11-20T01:08:29;7.80;99.90
53776;DHT22;44276;49.534;6.378;2022-11-20T01:11:00;7.80;99.90
53776;DHT22;44276;49.534;6.378;2022-11-20T01:13:29;7.80;99.90
53776;DHT22;44276;49.534;6.378;2022-11-20T01:16:08;7.80;99.90
53776;DHT22;44276;49.534;6.378;2022-11-20T01:18:38;7.80;99.90
53776;DHT22;44276;49.534;6.378;2022-11-20T01:21:08;7.80;99.90
53776;DHT22;44276;49.534;6.378;2022-11-20T01:23:39;7.80;99.90
53776;DHT22;44276;49.534;6.378;2022-11-20T01:26:10;7.80;99.90
53776;DHT22;44276;49.534;6.378;2022-11-20T01:28:40;7.90;99.90
53776;DHT22;44276;49.534;6.378;2022-11-20T01:31:12;7.90;99.90
53776;DHT22;44276;49.534;6.378;2022-11-20T01:33:41;7.90;99.90
53776;DHT22;44276;49.534;6.378;2022-11-20T01:36:10;7.90;99.90
53776;DHT22;44276;49.534;6.378;2022-11-20T01:38:39;7.90;99.90
53776;DHT22;44276;49.534;6.378;2022-11-20T01:41:09;8.00;99.90
53776;DHT22;44276;49.534;6.378;2022-11-20T01:43:58;8.00;99.90
53776;DHT22;44276;49.534;6.378;2022-11-20T01:46:26;8.00;99.90
53776;DHT22;44276;49.534;6.378;2022-11-20T01:48:54;7.90;99.90
53776;DHT22;44276;49.534;6.378;2022-11-20T01:51:27;7.90;99.90
53776;DHT22;44276;49.534;6.378;2022-11-20T01:54:03;7.80;99.90
53776;DHT22;44276;49.534;6.378;2022-11-20T01:56:37;7.80;99.90
53776;DHT22;44276;49.534;6.378;2022-11-20T01:59:07;7.80;99.90
53776;DHT22;44276;49.534;6.378;2022-11-20T02:01:37;7.80;99.90
53776;DHT22;44276;49.534;6.378;2022-11-20T02:04:06;7.70;99.90
53776;DHT22;44276;49.534;6.378;2022-11-20T02:06:36;7.80;99.90
53776;DHT22;44276;49.534;6.378;2022-11-20T02:09:09;7.80;99.90
53776;DHT22;44276;49.534;6.378;2022-11-20T02:11:39;7.70;99.90
53776;DHT22;44276;49.534;6.378;2022-11-20T02:14:07;7.80;99.90
53776;DHT22;44276;49.534;6.378;2022-11-20T02:16:35;7.80;99.90
53776;DHT22;44276;49.534;6.378;2022-11-20T02:19:07;7.70;99.90
53776;DHT22;44276;49.534;6.378;2022-11-20T02:21:40;7.80;99.90
53776;DHT22;44276;49.534;6.378;2022-11-20T02:24:15;7.90;99.90
53776;DHT22;44276;49.534;6.378;2022-11-20T02:26:47;7.80;99.90
53776;DHT22;44276;49.534;6.378;2022-11-20T02:29:22;7.80;99.90
53776;DHT22;44276;49.534;6.378;2022-11-20T02:31:53;7.90;99.90
53776;DHT22;44276;49.534;6.378;2022-11-20T02:34:24;7.90;99.90
53776;DHT22;44276;49.534;6.378;2022-11-20T02:36:52;7.90;99.90
53776;DHT22;44276;49.534;6.378;2022-11-20T02:39:22;7.90;99.90
53776;DHT22;44276;49.534;6.378;2022-11-20T02:45:32;7.90;99.90
53776;DHT22;44276;49.534;6.378;2022-11-20T02:48:01;7.80;99.90
53776;DHT22;44276;49.534;6.378;2022-11-20T02:50:28;7.80;99.90
53776;DHT22;44276;49.534;6.378;2022-11-20T02:52:56;7.70;99.90
53776;DHT22;44276;49.534;6.378;2022-11-20T02:55:26;7.60;99.90
53776;DHT22;44276;49.534;6.378;2022-11-20T02:57:54;7.60;99.90
53776;DHT22;44276;49.534;6.378;2022-11-20T03:00:22;7.60;99.90
53776;DHT22;44276;49.534;6.378;2022-11-20T03:02:50;7.60;99.90
53776;DHT22;44276;49.534;6.378;2022-11-20T03:05:18;7.50;99.90
53776;DHT22;44276;49.534;6.378;2022-11-20T03:07:46;7.50;99.90
53776;DHT22;44276;49.534;6.378;2022-11-20T03:10:13;7.40;99.90
53776;DHT22;44276;49.534;6.378;2022-11-20T03:12:43;7.40;99.90
53776;DHT22;44276;49.534;6.378;2022-11-20T03:15:11;7.40;99.90
53776;DHT22;44276;49.534;6.378;2022-11-20T03:17:39;7.40;99.90
53776;DHT22;44276;49.534;6.378;2022-11-20T03:20:08;7.50;99.90
53776;DHT22;44276;49.534;6.378;2022-11-20T03:22:36;7.50;99.90
53776;DHT22;44276;49.534;6.378;2022-11-20T03:25:04;7.60;99.90
53776;DHT22;44276;49.534;6.378;2022-11-20T03:27:33;7.60;99.90
53776;DHT22;44276;49.534;6.378;2022-11-20T03:30:03;7.60;99.90
53776;DHT22;44276;49.534;6.378;2022-11-20T03:32:32;7.60;99.90
53776;DHT22;44276;49.534;6.378;2022-11-20T03:35:00;7.70;99.90
53776;DHT22;44276;49.534;6.378;2022-11-20T03:37:28;7.60;99.90
53776;DHT22;44276;49.534;6.378;2022-11-20T03:39:56;7.60;99.90
53776;DHT22;44276;49.534;6.378;2022-11-20T03:42:24;7.60;99.90
53776;DHT22;44276;49.534;6.378;2022-11-20T03:45:11;7.60;99.90
53776;DHT22;44276;49.534;6.378;2022-11-20T03:47:39;7.60;99.90
53776;DHT22;44276;49.534;6.378;2022-11-20T03:50:07;7.60;99.90
53776;DHT22;44276;49.534;6.378;2022-11-20T03:52:35;7.60;99.90
53776;DHT22;44276;49.534;6.378;2022-11-20T03:55:04;7.60;99.90
53776;DHT22;44276;49.534;6.378;2022-11-20T03:57:32;7.60;99.90
53776;DHT22;44276;49.534;6.378;2022-11-20T04:00:02;7.60;99.90
53776;DHT22;44276;49.534;6.378;2022-11-20T04:02:32;7.60;99.90
53776;DHT22;44276;49.534;6.378;2022-11-20T04:05:00;7.50;99.90
53776;DHT22;44276;49.534;6.378;2022-11-20T04:07:28;7.50;99.90
53776;DHT22;44276;49.534;6.378;2022-11-20T04:09:56;7.50;99.90
53776;DHT22;44276;49.534;6.378;2022-11-20T04:12:24;7.50;99.90
53776;DHT22;44276;49.534;6.378;2022-11-20T04:14:52;7.50;99.90
53776;DHT22;44276;49.534;6.378;2022-11-20T04:17:20;7.50;99.90
53776;DHT22;44276;49.534;6.378;2022-11-20T04:19:49;7.50;99.90
53776;DHT22;44276;49.534;6.378;2022-11-20T04:22:17;7.50;99.90
53776;DHT22;44276;49.534;6.378;2022-11-20T04:24:45;7.50;99.90
53776;DHT22;44276;49.534;6.378;2022-11-20T04:27:13;7.50;99.90
53776;DHT22;44276;49.534;6.378;2022-11-20T04:29:41;7.40;99.90
53776;DHT22;44276;49.534;6.378;2022-11-20T04:32:10;7.50;99.90
53776;DHT22;44276;49.534;6.378;2022-11-20T04:34:38;7.50;99.90
53776;DHT22;44276;49.534;6.378;2022-11-20T04:37:07;7.60;99.90
53776;DHT22;44276;49.534;6.378;2022-11-20T04:39:35;7.60;99.90
53776;DHT22;44276;49.534;6.378;2022-11-20T04:42:03;7.60;99.90
53776;DHT22;44276;49.534;6.378;2022-11-20T04:44:48;7.60;99.90
53776;DHT22;44276;49.534;6.378;2022-11-20T04:47:16;7.60;99.90
53776;DHT22;44276;49.534;6.378;2022-11-20T04:49:44;7.60;99.90
53776;DHT22;44276;49.534;6.378;2022-11-20T04:52:14;7.70;99.90
53776;DHT22;44276;49.534;6.378;2022-11-20T04:54:42;7.70;99.90
53776;DHT22;44276;49.534;6.378;2022-11-20T04:57:09;7.70;99.90
53776;DHT22;44276;49.534;6.378;2022-11-20T04:59:40;7.70;99.90
53776;DHT22;44276;49.534;6.378;2022-11-20T05:02:09;7.70;99.90
53776;DHT22;44276;49.534;6.378;2022-11-20T05:04:37;7.60;99.90
53776;DHT22;44276;49.534;6.378;2022-11-20T05:07:05;7.60;99.90
53776;DHT22;44276;49.534;6.378;2022-11-20T05:09:34;7.60;99.90
53776;DHT22;44276;49.534;6.378;2022-11-20T05:12:03;7.60;99.90
53776;DHT22;44276;49.534;6.378;2022-11-20T05:14:31;7.50;99.90
53776;DHT22;44276;49.534;6.378;2022-11-20T05:16:59;7.60;99.90
53776;DHT22;44276;49.534;6.378;2022-11-20T05:19:27;7.60;99.90
53776;DHT22;44276;49.534;6.378;2022-11-20T05:21:54;7.60;99.90
53776;DHT22;44276;49.534;6.378;2022-11-20T05:24:22;7.60;99.90
53776;DHT22;44276;49.534;6.378;2022-11-20T05:26:52;7.60;99.90
53776;DHT22;44276;49.534;6.378;2022-11-20T05:29:20;7.70;99.90
53776;DHT22;44276;49.534;6.378;2022-11-20T05:31:48;7.70;99.90
53776;DHT22;44276;49.534;6.378;2022-11-20T05:34:16;7.80;99.90
53776;DHT22;44276;49.534;6.378;2022-11-20T05:36:44;7.80;99.90
53776;DHT22;44276;49.534;6.378;2022-11-20T05:39:12;7.80;99.90
53776;DHT22;44276;49.534;6.378;2022-11-20T05:41:40;7.70;99.90
53776;DHT22;44276;49.534;6.378;2022-11-20T05:44:11;7.60;99.90
53776;DHT22;44276;49.534;6.378;2022-11-20T05:46:39;7.60;99.90
53776;DHT22;44276;49.534;6.378;2022-11-20T05:49:07;7.70;99.90
53776;DHT22;44276;49.534;6.378;2022-11-20T05:51:34;7.60;99.90
53776;DHT22;44276;49.534;6.378;2022-11-20T05:54:02;7.60;99.90
53776;DHT22;44276;49.534;6.378;2022-11-20T05:56:30;7.60;99.90
53776;DHT22;44276;49.534;6.378;2022-11-20T05:58:59;7.50;99.90
53776;DHT22;44276;49.534;6.378;2022-11-20T06:01:28;7.50;99.90
53776;DHT22;44276;49.534;6.378;2022-11-20T06:03:56;7.40;99.90
53776;DHT22;44276;49.534;6.378;2022-11-20T06:06:24;7.40;99.90
53776;DHT22;44276;49.534;6.378;2022-11-20T06:08:52;7.40;99.90
53776;DHT22;44276;49.534;6.378;2022-11-20T06:11:20;7.40;99.90
53776;DHT22;44276;49.534;6.378;2022-11-20T06:13:48;7.40;99.90
53776;DHT22;44276;49.534;6.378;2022-11-20T06:16:17;7.40;99.90
53776;DHT22;44276;49.534;6.378;2022-11-20T06:18:49;7.40;99.90
53776;DHT22;44276;49.534;6.378;2022-11-20T06:21:18;7.50;99.90
53776;DHT22;44276;49.534;6.378;2022-11-20T06:23:47;7.50;99.90
53776;DHT22;44276;49.534;6.378;2022-11-20T06:26:17;7.50;99.90
53776;DHT22;44276;49.534;6.378;2022-11-20T06:28:46;7.50;99.90
53776;DHT22;44276;49.534;6.378;2022-11-20T06:31:15;7.60;99.90
53776;DHT22;44276;49.534;6.378;2022-11-20T06:33:45;7.60;99.90
53776;DHT22;44276;49.534;6.378;2022-11-20T06:36:15;7.60;99.90
53776;DHT22;44276;49.534;6.378;2022-11-20T06:38:44;7.60;99.90
53776;DHT22;44276;49.534;6.378;2022-11-20T06:41:13;7.60;99.90
53776;DHT22;44276;49.534;6.378;2022-11-20T06:43:43;7.60;99.90
53776;DHT22;44276;49.534;6.378;2022-11-20T06:46:11;7.60;99.90
53776;DHT22;44276;49.534;6.378;2022-11-20T06:48:40;7.60;99.90
53776;DHT22;44276;49.534;6.378;2022-11-20T06:51:08;7.60;99.90
53776;DHT22;44276;49.534;6.378;2022-11-20T06:53:38;7.60;99.90
53776;DHT22;44276;49.534;6.378;2022-11-20T06:56:06;7.70;99.90
53776;DHT22;44276;49.534;6.378;2022-11-20T06:58:35;7.70;99.90
53776;DHT22;44276;49.534;6.378;2022-11-20T07:01:04;7.70;99.90
53776;DHT22;44276;49.534;6.378;2022-11-20T07:03:34;7.70;99.90
53776;DHT22;44276;49.534;6.378;2022-11-20T07:06:02;7.60;99.90
53776;DHT22;44276;49.534;6.378;2022-11-20T07:08:30;7.70;99.90
53776;DHT22;44276;49.534;6.378;2022-11-20T07:11:01;7.60;99.90
53776;DHT22;44276;49.534;6.378;2022-11-20T07:13:31;7.60;99.90
53776;DHT22;44276;49.534;6.378;2022-11-20T07:15:59;7.60;99.90
53776;DHT22;44276;49.534;6.378;2022-11-20T07:18:28;7.60;99.90
53776;DHT22;44276;49.534;6.378;2022-11-20T07:20:59;7.60;99.90
53776;DHT22;44276;49.534;6.378;2022-11-20T07:23:27;7.60;99.90
53776;DHT22;44276;49.534;6.378;2022-11-20T07:25:55;7.60;99.90
53776;DHT22;44276;49.534;6.378;2022-11-20T07:28:24;7.60;99.90
53776;DHT22;44276;49.534;6.378;2022-11-20T07:30:53;7.60;99.90
53776;DHT22;44276;49.534;6.378;2022-11-20T07:33:21;7.60;99.90
53776;DHT22;44276;49.534;6.378;2022-11-20T07:35:49;7.70;99.90
53776;DHT22;44276;49.534;6.378;2022-11-20T07:38:16;7.70;99.90
53776;DHT22;44276;49.534;6.378;2022-11-20T07:40:44;7.70;99.90
53776;DHT22;44276;49.534;6.378;2022-11-20T07:43:12;7.70;99.90
53776;DHT22;44276;49.534;6.378;2022-11-20T07:45:42;7.80;99.90
53776;DHT22;44276;49.534;6.378;2022-11-20T07:48:09;7.80;99.90
53776;DHT22;44276;49.534;6.378;2022-11-20T07:50:37;7.90;99.90
53776;DHT22;44276;49.534;6.378;2022-11-20T07:53:05;7.90;99.90
53776;DHT22;44276;49.534;6.378;2022-11-20T07:55:33;7.90;99.90
53776;DHT22;44276;49.534;6.378;2022-11-20T07:58:01;7.90;99.90
53776;DHT22;44276;49.534;6.378;2022-11-20T08:00:29;7.90;99.90
53776;DHT22;44276;49.534;6.378;2022-11-20T08:02:59;8.00;99.90
53776;DHT22;44276;49.534;6.378;2022-11-20T08:05:26;8.00;99.90
53776;DHT22;44276;49.534;6.378;2022-11-20T08:07:54;8.00;99.90
53776;DHT22;44276;49.534;6.378;2022-11-20T08:10:22;8.00;99.90
53776;DHT22;44276;49.534;6.378;2022-11-20T08:12:51;8.00;99.90
53776;DHT22;44276;49.534;6.378;2022-11-20T08:15:38;8.00;99.90
53776;DHT22;44276;49.534;6.378;2022-11-20T08:18:08;8.00;99.90
53776;DHT22;44276;49.534;6.378;2022-11-20T08:20:57;8.00;99.90
53776;DHT22;44276;49.534;6.378;2022-11-20T08:23:25;8.10;99.90
53776;DHT22;44276;49.534;6.378;2022-11-20T08:25:53;8.10;99.90
53776;DHT22;44276;49.534;6.378;2022-11-20T08:28:21;8.10;99.90
53776;DHT22;44276;49.534;6.378;2022-11-20T08:30:49;8.10;99.90
53776;DHT22;44276;49.534;6.378;2022-11-20T08:33:18;8.20;99.90
53776;DHT22;44276;49.534;6.378;2022-11-20T08:35:46;8.20;99.90
53776;DHT22;44276;49.534;6.378;2022-11-20T08:38:14;8.30;99.90
53776;DHT22;44276;49.534;6.378;2022-11-20T08:40:42;8.30;99.90
53776;DHT22;44276;49.534;6.378;2022-11-20T08:43:31;8.30;99.90
53776;DHT22;44276;49.534;6.378;2022-11-20T08:46:00;8.40;99.90
53776;DHT22;44276;49.534;6.378;2022-11-20T08:48:29;8.50;99.90
53776;DHT22;44276;49.534;6.378;2022-11-20T08:50:57;8.60;99.90
53776;DHT22;44276;49.534;6.378;2022-11-20T08:53:26;8.60;99.90
53776;DHT22;44276;49.534;6.378;2022-11-20T08:55:54;8.70;99.90
53776;DHT22;44276;49.534;6.378;2022-11-20T08:58:24;8.60;99.90
53776;DHT22;44276;49.534;6.378;2022-11-20T09:00:54;8.60;99.90
53776;DHT22;44276;49.534;6.378;2022-11-20T09:03:22;8.60;99.90
53776;DHT22;44276;49.534;6.378;2022-11-20T09:05:58;8.60;99.90
53776;DHT22;44276;49.534;6.378;2022-11-20T09:08:28;8.60;99.90
53776;DHT22;44276;49.534;6.378;2022-11-20T09:10:57;8.70;99.90
53776;DHT22;44276;49.534;6.378;2022-11-20T09:13:26;8.70;99.90
53776;DHT22;44276;49.534;6.378;2022-11-20T09:15:56;8.80;99.90
53776;DHT22;44276;49.534;6.378;2022-11-20T09:18:25;8.80;99.90
53776;DHT22;44276;49.534;6.378;2022-11-20T09:20:55;8.80;99.90
53776;DHT22;44276;49.534;6.378;2022-11-20T09:23:26;8.60;99.90
53776;DHT22;44276;49.534;6.378;2022-11-20T09:25:54;8.40;99.90
53776;DHT22;44276;49.534;6.378;2022-11-20T09:28:26;8.40;99.90
53776;DHT22;44276;49.534;6.378;2022-11-20T09:30:54;8.30;99.90
53776;DHT22;44276;49.534;6.378;2022-11-20T09:33:22;8.80;99.90
53776;DHT22;44276;49.534;6.378;2022-11-20T09:35:50;9.50;99.90
53776;DHT22;44276;49.534;6.378;2022-11-20T09:38:18;9.20;99.90
53776;DHT22;44276;49.534;6.378;2022-11-20T09:40:49;9.20;99.90
53776;DHT22;44276;49.534;6.378;2022-11-20T09:43:25;9.70;99.90
53776;DHT22;44276;49.534;6.378;2022-11-20T09:46:07;10.80;70.80
53776;DHT22;44276;49.534;6.378;2022-11-20T09:48:47;10.50;68.00
53776;DHT22;44276;49.534;6.378;2022-11-20T09:51:27;9.90;73.00
53776;DHT22;44276;49.534;6.378;2022-11-20T09:54:09;9.90;78.30
53776;DHT22;44276;49.534;6.378;2022-11-20T09:56:46;9.70;82.10
53776;DHT22;44276;49.534;6.378;2022-11-20T09:59:27;9.70;96.30
53776;DHT22;44276;49.534;6.378;2022-11-20T10:02:06;9.90;85.60
53776;DHT22;44276;49.534;6.378;2022-11-20T10:04:43;10.80;60.00
53776;DHT22;44276;49.534;6.378;2022-11-20T10:07:17;10.60;60.90
53776;DHT22;44276;49.534;6.378;2022-11-20T10:09:59;11.10;55.30
53776;DHT22;44276;49.534;6.378;2022-11-20T10:12:43;11.90;44.90
53776;DHT22;44276;49.534;6.378;2022-11-20T10:15:25;11.90;42.40
53776;DHT22;44276;49.534;6.378;2022-11-20T10:18:05;12.10;41.10
53776;DHT22;44276;49.534;6.378;2022-11-20T10:20:41;11.70;42.90
53776;DHT22;44276;49.534;6.378;2022-11-20T10:23:24;10.90;48.10
53776;DHT22;44276;49.534;6.378;2022-11-20T10:26:16;10.80;48.30
53776;DHT22;44276;49.534;6.378;2022-11-20T10:28:55;10.40;55.90
53776;DHT22;44276;49.534;6.378;2022-11-20T10:31:36;10.10;58.90
53776;DHT22;44276;49.534;6.378;2022-11-20T10:34:06;9.90;65.40
53776;DHT22;44276;49.534;6.378;2022-11-20T10:36:46;9.70;68.30
53776;DHT22;44276;49.534;6.378;2022-11-20T10:39:21;9.90;72.40
53776;DHT22;44276;49.534;6.378;2022-11-20T10:41:56;10.10;62.30
53776;DHT22;44276;49.534;6.378;2022-11-20T10:44:28;10.50;61.30
53776;DHT22;44276;49.534;6.378;2022-11-20T10:47:20;11.40;46.90
53776;DHT22;44276;49.534;6.378;2022-11-20T10:49:49;11.80;44.20
53776;DHT22;44276;49.534;6.378;2022-11-20T10:52:21;11.50;47.20
53776;DHT22;44276;49.534;6.378;2022-11-20T10:54:58;11.80;48.80
53776;DHT22;44276;49.534;6.378;2022-11-20T10:57:44;12.30;41.60
53776;DHT22;44276;49.534;6.378;2022-11-20T11:00:22;12.20;40.60
53776;DHT22;44276;49.534;6.378;2022-11-20T11:02:51;11.70;42.00
53776;DHT22;44276;49.534;6.378;2022-11-20T11:05:32;11.40;42.20
53776;DHT22;44276;49.534;6.378;2022-11-20T11:08:05;10.80;45.90
53776;DHT22;44276;49.534;6.378;2022-11-20T11:10:42;10.80;46.70
53776;DHT22;44276;49.534;6.378;2022-11-20T11:13:19;10.90;49.60
53776;DHT22;44276;49.534;6.378;2022-11-20T11:15:50;11.00;46.30
53776;DHT22;44276;49.534;6.378;2022-11-20T11:18:25;10.90;43.60
53776;DHT22;44276;49.534;6.378;2022-11-20T11:20:56;10.60;47.70
53776;DHT22;44276;49.534;6.378;2022-11-20T11:23:29;10.70;47.30
53776;DHT22;44276;49.534;6.378;2022-11-20T11:26:00;10.90;48.00
53776;DHT22;44276;49.534;6.378;2022-11-20T11:28:30;11.20;44.80
53776;DHT22;44276;49.534;6.378;2022-11-20T11:31:00;11.50;41.90
53776;DHT22;44276;49.534;6.378;2022-11-20T11:33:29;11.30;41.50
53776;DHT22;44276;49.534;6.378;2022-11-20T11:36:01;11.20;45.50
53776;DHT22;44276;49.534;6.378;2022-11-20T11:38:33;11.30;43.40
53776;DHT22;44276;49.534;6.378;2022-11-20T11:41:04;11.60;41.80
53776;DHT22;44276;49.534;6.378;2022-11-20T11:43:35;12.00;37.00
53776;DHT22;44276;49.534;6.378;2022-11-20T11:46:37;12.00;40.30
53776;DHT22;44276;49.534;6.378;2022-11-20T11:49:15;11.50;38.60
53776;DHT22;44276;49.534;6.378;2022-11-20T11:51:58;11.10;43.40
53776;DHT22;44276;49.534;6.378;2022-11-20T11:54:32;11.00;46.70
53776;DHT22;44276;49.534;6.378;2022-11-20T11:57:05;10.90;44.80
53776;DHT22;44276;49.534;6.378;2022-11-20T11:59:49;10.50;43.20
53776;DHT22;44276;49.534;6.378;2022-11-20T12:02:32;10.20;50.10
53776;DHT22;44276;49.534;6.378;2022-11-20T12:05:08;10.00;53.10
53776;DHT22;44276;49.534;6.378;2022-11-20T12:07:45;9.90;61.30
53776;DHT22;44276;49.534;6.378;2022-11-20T12:10:17;9.80;57.90
53776;DHT22;44276;49.534;6.378;2022-11-20T12:12:50;9.80;55.40
53776;DHT22;44276;49.534;6.378;2022-11-20T12:15:29;9.70;53.40
53776;DHT22;44276;49.534;6.378;2022-11-20T12:18:00;9.70;56.10
53776;DHT22;44276;49.534;6.378;2022-11-20T12:20:30;9.70;57.50
53776;DHT22;44276;49.534;6.378;2022-11-20T12:23:07;9.70;57.20
53776;DHT22;44276;49.534;6.378;2022-11-20T12:25:43;9.70;57.20
53776;DHT22;44276;49.534;6.378;2022-11-20T12:28:18;9.80;58.10
53776;DHT22;44276;49.534;6.378;2022-11-20T12:34:12;9.60;51.40
53776;DHT22;44276;49.534;6.378;2022-11-20T12:36:56;9.50;51.60
53776;DHT22;44276;49.534;6.378;2022-11-20T12:39:34;9.60;53.00
53776;DHT22;44276;49.534;6.378;2022-11-20T12:42:05;9.50;54.00
53776;DHT22;44276;49.534;6.378;2022-11-20T12:45:07;9.60;56.30
53776;DHT22;44276;49.534;6.378;2022-11-20T12:50:57;9.70;55.90
53776;DHT22;44276;49.534;6.378;2022-11-20T12:53:43;9.70;57.90
53776;DHT22;44276;49.534;6.378;2022-11-20T12:56:28;9.60;56.50
53776;DHT22;44276;49.534;6.378;2022-11-20T12:59:09;9.50;58.30
53776;DHT22;44276;49.534;6.378;2022-11-20T13:01:58;9.40;56.60
53776;DHT22;44276;49.534;6.378;2022-11-20T13:05:07;9.40;56.70
53776;DHT22;44276;49.534;6.378;2022-11-20T13:08:52;9.30;59.50
53776;DHT22;44276;49.534;6.378;2022-11-20T13:11:24;9.40;56.20
53776;DHT22;44276;49.534;6.378;2022-11-20T13:14:04;9.40;58.20
53776;DHT22;44276;49.534;6.378;2022-11-20T13:16:41;9.50;53.20
53776;DHT22;44276;49.534;6.378;2022-11-20T13:19:16;9.60;54.40
53776;DHT22;44276;49.534;6.378;2022-11-20T13:21:51;9.60;50.50
53776;DHT22;44276;49.534;6.378;2022-11-20T13:24:23;9.60;49.30
53776;DHT22;44276;49.534;6.378;2022-11-20T13:26:59;9.50;50.10
53776;DHT22;44276;49.534;6.378;2022-11-20T13:29:29;9.40;53.10
53776;DHT22;44276;49.534;6.378;2022-11-20T13:32:04;9.40;54.60
53776;DHT22;44276;49.534;6.378;2022-11-20T13:34:34;9.30;53.70
53776;DHT22;44276;49.534;6.378;2022-11-20T13:37:03;9.30;56.00
53776;DHT22;44276;49.534;6.378;2022-11-20T13:39:39;9.30;61.50
53776;DHT22;44276;49.534;6.378;2022-11-20T13:42:20;9.30;61.40
53776;DHT22;44276;49.534;6.378;2022-11-20T13:44:53;9.20;55.90
53776;DHT22;44276;49.534;6.378;2022-11-20T13:47:28;9.20;55.70
53776;DHT22;44276;49.534;6.378;2022-11-20T13:49:58;9.10;54.00
53776;DHT22;44276;49.534;6.378;2022-11-20T13:52:37;9.10;50.30
53776;DHT22;44276;49.534;6.378;2022-11-20T13:55:18;9.10;50.50
53776;DHT22;44276;49.534;6.378;2022-11-20T14:00:43;9.00;53.70
53776;DHT22;44276;49.534;6.378;2022-11-20T14:03:16;9.00;54.70
53776;DHT22;44276;49.534;6.378;2022-11-20T14:06:11;9.00;53.80
53776;DHT22;44276;49.534;6.378;2022-11-20T14:08:43;8.90;56.50
53776;DHT22;44276;49.534;6.378;2022-11-20T14:11:16;8.90;56.80
53776;DHT22;44276;49.534;6.378;2022-11-20T14:13:55;9.00;51.80
53776;DHT22;44276;49.534;6.378;2022-11-20T14:16:26;9.00;55.80
53776;DHT22;44276;49.534;6.378;2022-11-20T14:19:17;9.00;54.90
53776;DHT22;44276;49.534;6.378;2022-11-20T14:21:54;9.10;59.10
53776;DHT22;44276;49.534;6.378;2022-11-20T14:24:34;9.00;60.40
53776;DHT22;44276;49.534;6.378;2022-11-20T14:27:11;9.00;52.70
53776;DHT22;44276;49.534;6.378;2022-11-20T14:29:40;9.00;55.00
53776;DHT22;44276;49.534;6.378;2022-11-20T14:32:10;8.90;57.10
53776;DHT22;44276;49.534;6.378;2022-11-20T14:34:39;8.80;60.50
53776;DHT22;44276;49.534;6.378;2022-11-20T14:37:10;8.70;62.60
53776;DHT22;44276;49.534;6.378;2022-11-20T14:39:48;8.60;67.50
53776;DHT22;44276;49.534;6.378;2022-11-20T14:42:20;8.70;61.30
53776;DHT22;44276;49.534;6.378;2022-11-20T14:44:50;8.60;63.80
53776;DHT22;44276;49.534;6.378;2022-11-20T14:47:21;8.60;64.50
53776;DHT22;44276;49.534;6.378;2022-11-20T14:49:51;8.60;69.00
53776;DHT22;44276;49.534;6.378;2022-11-20T14:52:22;8.50;70.70
53776;DHT22;44276;49.534;6.378;2022-11-20T14:54:53;8.50;83.60
53776;DHT22;44276;49.534;6.378;2022-11-20T14:57:25;8.40;84.20
53776;DHT22;44276;49.534;6.378;2022-11-20T15:00:04;8.30;97.70
53776;DHT22;44276;49.534;6.378;2022-11-20T15:02:38;8.10;99.90
53776;DHT22;44276;49.534;6.378;2022-11-20T15:05:08;7.90;99.90
53776;DHT22;44276;49.534;6.378;2022-11-20T15:07:37;7.70;99.90
53776;DHT22;44276;49.534;6.378;2022-11-20T15:10:12;7.60;99.90
53776;DHT22;44276;49.534;6.378;2022-11-20T15:12:48;7.40;99.90
53776;DHT22;44276;49.534;6.378;2022-11-20T15:15:19;7.30;99.90
53776;DHT22;44276;49.534;6.378;2022-11-20T15:17:51;7.30;99.90
53776;DHT22;44276;49.534;6.378;2022-11-20T15:20:19;7.20;99.90
53776;DHT22;44276;49.534;6.378;2022-11-20T15:22:51;7.10;99.90
53776;DHT22;44276;49.534;6.378;2022-11-20T15:25:19;7.20;99.90
53776;DHT22;44276;49.534;6.378;2022-11-20T15:27:49;7.20;99.90
53776;DHT22;44276;49.534;6.378;2022-11-20T15:30:20;7.10;99.90
53776;DHT22;44276;49.534;6.378;2022-11-20T15:32:49;7.10;99.90
53776;DHT22;44276;49.534;6.378;2022-11-20T15:35:17;7.10;99.90
53776;DHT22;44276;49.534;6.378;2022-11-20T15:37:45;7.10;99.90
53776;DHT22;44276;49.534;6.378;2022-11-20T15:40:13;7.10;99.90
53776;DHT22;44276;49.534;6.378;2022-11-20T15:42:42;7.00;99.90
53776;DHT22;44276;49.534;6.378;2022-11-20T15:45:37;7.00;99.90
53776;DHT22;44276;49.534;6.378;2022-11-20T15:48:08;6.90;99.90
53776;DHT22;44276;49.534;6.378;2022-11-20T15:50:39;6.90;99.90
53776;DHT22;44276;49.534;6.378;2022-11-20T15:53:15;6.90;99.90
53776;DHT22;44276;49.534;6.378;2022-11-20T15:55:43;6.80;99.90
53776;DHT22;44276;49.534;6.378;2022-11-20T15:58:11;6.70;99.90
53776;DHT22;44276;49.534;6.378;2022-11-20T16:00:40;6.70;99.90
53776;DHT22;44276;49.534;6.378;2022-11-20T16:03:09;6.70;99.90
53776;DHT22;44276;49.534;6.378;2022-11-20T16:05:38;6.70;99.90
53776;DHT22;44276;49.534;6.378;2022-11-20T16:08:06;6.60;99.90
53776;DHT22;44276;49.534;6.378;2022-11-20T16:10:37;6.70;99.90
53776;DHT22;44276;49.534;6.378;2022-11-20T16:13:10;6.80;99.90
53776;DHT22;44276;49.534;6.378;2022-11-20T16:15:59;6.60;99.90
53776;DHT22;44276;49.534;6.378;2022-11-20T16:18:31;6.60;99.90
53776;DHT22;44276;49.534;6.378;2022-11-20T16:21:00;6.60;99.90
53776;DHT22;44276;49.534;6.378;2022-11-20T16:23:28;6.60;99.90
53776;DHT22;44276;49.534;6.378;2022-11-20T16:25:56;6.70;99.90
53776;DHT22;44276;49.534;6.378;2022-11-20T16:28:24;6.60;99.90